sensor_id;sensor_type;location;lat;lon;timestamp;temperature;humidity
44477;DHT22;30180;44.788;10.366;2022-07-24T00:00:40;28.10;56.20
44477;DHT22;30180;44.788;10.366;2022-07-24T00:03:08;28.10;56.10
44477;DHT22;30180;44.788;10.366;2022-07-24T00:05:36;28.10;56.10
44477;DHT22;30180;44.788;10.366;2022-07-24T00:08:05;28.10;56.10
44477;DHT22;30180;44.788;10.366;2022-07-24T00:10:33;28.10;56.10
44477;DHT22;30180;44.788;10.366;2022-07-24T00:13:02;28.10;56.10
44477;DHT22;30180;44.788;10.366;2022-07-24T00:15:31;28.10;56.10
44477;DHT22;30180;44.788;10.366;2022-07-24T00:18:00;28.10;56.00
44477;DHT22;30180;44.788;10.366;2022-07-24T00:20:28;28.10;56.00
44477;DHT22;30180;44.788;10.366;2022-07-24T00:22:56;28.10;56.00
44477;DHT22;30180;44.788;10.366;2022-07-24T00:25:25;28.00;55.90
44477;DHT22;30180;44.788;10.366;2022-07-24T00:27:53;28.10;56.00
44477;DHT22;30180;44.788;10.366;2022-07-24T00:30:21;28.10;56.00
44477;DHT22;30180;44.788;10.366;2022-07-24T00:32:51;28.10;56.00
44477;DHT22;30180;44.788;10.366;2022-07-24T00:35:19;28.10;55.90
44477;DHT22;30180;44.788;10.366;2022-07-24T00:37:48;28.10;55.90
44477;DHT22;30180;44.788;10.366;2022-07-24T00:40:16;28.00;55.90
44477;DHT22;30180;44.788;10.366;2022-07-24T00:42:44;28.10;55.90
44477;DHT22;30180;44.788;10.366;2022-07-24T00:45:13;28.10;55.90
44477;DHT22;30180;44.788;10.366;2022-07-24T00:47:52;28.10;55.90
44477;DHT22;30180;44.788;10.366;2022-07-24T00:50:25;28.10;55.90
44477;DHT22;30180;44.788;10.366;2022-07-24T00:52:53;28.10;55.90
44477;DHT22;30180;44.788;10.366;2022-07-24T00:55:22;28.10;55.90
44477;DHT22;30180;44.788;10.366;2022-07-24T00:57:51;28.10;55.90
44477;DHT22;30180;44.788;10.366;2022-07-24T01:00:20;28.10;55.90
44477;DHT22;30180;44.788;10.366;2022-07-24T01:02:49;28.10;55.90
44477;DHT22;30180;44.788;10.366;2022-07-24T01:05:19;28.10;55.90
44477;DHT22;30180;44.788;10.366;2022-07-24T01:07:48;28.10;55.90
44477;DHT22;30180;44.788;10.366;2022-07-24T01:10:16;28.10;55.90
44477;DHT22;30180;44.788;10.366;2022-07-24T01:12:44;28.10;55.80
44477;DHT22;30180;44.788;10.366;2022-07-24T01:15:13;28.10;55.80
44477;DHT22;30180;44.788;10.366;2022-07-24T01:17:42;28.10;55.80
44477;DHT22;30180;44.788;10.366;2022-07-24T01:20:11;28.10;55.80
44477;DHT22;30180;44.788;10.366;2022-07-24T01:22:41;28.10;55.80
44477;DHT22;30180;44.788;10.366;2022-07-24T01:25:09;28.10;55.80
44477;DHT22;30180;44.788;10.366;2022-07-24T01:27:38;28.10;55.80
44477;DHT22;30180;44.788;10.366;2022-07-24T01:30:08;28.10;55.80
44477;DHT22;30180;44.788;10.366;2022-07-24T01:32:37;28.10;55.80
44477;DHT22;30180;44.788;10.366;2022-07-24T01:35:06;28.10;55.80
44477;DHT22;30180;44.788;10.366;2022-07-24T01:37:34;28.10;55.80
44477;DHT22;30180;44.788;10.366;2022-07-24T01:40:05;28.10;55.80
44477;DHT22;30180;44.788;10.366;2022-07-24T01:42:33;28.10;55.80
44477;DHT22;30180;44.788;10.366;2022-07-24T01:45:02;28.10;55.80
44477;DHT22;30180;44.788;10.366;2022-07-24T01:47:30;28.10;55.80
44477;DHT22;30180;44.788;10.366;2022-07-24T01:49:58;28.10;55.80
44477;DHT22;30180;44.788;10.366;2022-07-24T01:52:26;28.10;55.80
44477;DHT22;30180;44.788;10.366;2022-07-24T01:54:55;28.10;55.90
44477;DHT22;30180;44.788;10.366;2022-07-24T01:57:24;28.10;55.80
44477;DHT22;30180;44.788;10.366;2022-07-24T01:59:56;28.10;55.80
44477;DHT22;30180;44.788;10.366;2022-07-24T02:02:25;28.10;55.90
44477;DHT22;30180;44.788;10.366;2022-07-24T02:04:53;28.10;55.80
44477;DHT22;30180;44.788;10.366;2022-07-24T02:07:21;28.10;55.90
44477;DHT22;30180;44.788;10.366;2022-07-24T02:09:50;28.10;55.90
44477;DHT22;30180;44.788;10.366;2022-07-24T02:12:18;28.10;55.90
44477;DHT22;30180;44.788;10.366;2022-07-24T02:14:47;28.10;55.80
44477;DHT22;30180;44.788;10.366;2022-07-24T02:17:16;28.10;55.90
44477;DHT22;30180;44.788;10.366;2022-07-24T02:19:44;28.00;55.80
44477;DHT22;30180;44.788;10.366;2022-07-24T02:22:12;28.10;55.90
44477;DHT22;30180;44.788;10.366;2022-07-24T02:24:40;28.10;55.90
44477;DHT22;30180;44.788;10.366;2022-07-24T02:27:09;28.10;55.90
44477;DHT22;30180;44.788;10.366;2022-07-24T02:29:37;28.10;55.90
44477;DHT22;30180;44.788;10.366;2022-07-24T02:32:08;28.10;55.90
44477;DHT22;30180;44.788;10.366;2022-07-24T02:34:36;28.10;55.90
44477;DHT22;30180;44.788;10.366;2022-07-24T02:37:04;28.10;55.90
44477;DHT22;30180;44.788;10.366;2022-07-24T02:39:32;28.10;55.90
44477;DHT22;30180;44.788;10.366;2022-07-24T02:42:00;28.10;55.90
44477;DHT22;30180;44.788;10.366;2022-07-24T02:44:29;28.10;55.90
44477;DHT22;30180;44.788;10.366;2022-07-24T02:46:57;28.10;55.90
44477;DHT22;30180;44.788;10.366;2022-07-24T02:49:27;28.10;55.90
44477;DHT22;30180;44.788;10.366;2022-07-24T02:51:55;28.10;55.90
44477;DHT22;30180;44.788;10.366;2022-07-24T02:54:23;28.10;55.90
44477;DHT22;30180;44.788;10.366;2022-07-24T02:56:51;28.10;55.90
44477;DHT22;30180;44.788;10.366;2022-07-24T02:59:20;28.10;55.90
44477;DHT22;30180;44.788;10.366;2022-07-24T03:01:48;28.10;55.90
44477;DHT22;30180;44.788;10.366;2022-07-24T03:04:16;28.10;55.90
44477;DHT22;30180;44.788;10.366;2022-07-24T03:06:46;28.10;55.90
44477;DHT22;30180;44.788;10.366;2022-07-24T03:09:14;28.10;55.90
44477;DHT22;30180;44.788;10.366;2022-07-24T03:11:43;28.00;55.90
44477;DHT22;30180;44.788;10.366;2022-07-24T03:14:11;28.10;55.90
44477;DHT22;30180;44.788;10.366;2022-07-24T03:16:39;28.10;56.00
44477;DHT22;30180;44.788;10.366;2022-07-24T03:19:07;28.10;56.00
44477;DHT22;30180;44.788;10.366;2022-07-24T03:21:36;28.10;56.00
44477;DHT22;30180;44.788;10.366;2022-07-24T03:24:15;28.10;56.00
44477;DHT22;30180;44.788;10.366;2022-07-24T03:26:44;28.10;56.00
44477;DHT22;30180;44.788;10.366;2022-07-24T03:29:12;28.10;56.00
44477;DHT22;30180;44.788;10.366;2022-07-24T03:31:40;28.10;56.00
44477;DHT22;30180;44.788;10.366;2022-07-24T03:34:09;28.10;56.70
44477;DHT22;30180;44.788;10.366;2022-07-24T03:36:38;28.10;56.10
44477;DHT22;30180;44.788;10.366;2022-07-24T03:39:06;28.10;56.10
44477;DHT22;30180;44.788;10.366;2022-07-24T03:41:37;28.10;56.10
44477;DHT22;30180;44.788;10.366;2022-07-24T03:44:05;28.10;56.10
44477;DHT22;30180;44.788;10.366;2022-07-24T03:46:34;28.10;56.10
44477;DHT22;30180;44.788;10.366;2022-07-24T03:49:02;28.10;56.10
44477;DHT22;30180;44.788;10.366;2022-07-24T03:51:31;28.10;56.10
44477;DHT22;30180;44.788;10.366;2022-07-24T03:54:04;28.10;56.10
44477;DHT22;30180;44.788;10.366;2022-07-24T03:56:32;28.10;56.20
44477;DHT22;30180;44.788;10.366;2022-07-24T03:59:02;28.10;56.20
44477;DHT22;30180;44.788;10.366;2022-07-24T04:01:31;28.10;56.20
44477;DHT22;30180;44.788;10.366;2022-07-24T04:03:59;28.10;56.20
44477;DHT22;30180;44.788;10.366;2022-07-24T04:06:32;28.10;56.20
44477;DHT22;30180;44.788;10.366;2022-07-24T04:09:02;28.10;56.20
44477;DHT22;30180;44.788;10.366;2022-07-24T04:11:31;28.10;56.30
44477;DHT22;30180;44.788;10.366;2022-07-24T04:13:59;28.10;56.30
44477;DHT22;30180;44.788;10.366;2022-07-24T04:16:29;28.10;56.30
44477;DHT22;30180;44.788;10.366;2022-07-24T04:18:57;28.10;56.30
44477;DHT22;30180;44.788;10.366;2022-07-24T04:21:32;28.10;56.30
44477;DHT22;30180;44.788;10.366;2022-07-24T04:24:01;28.10;56.40
44477;DHT22;30180;44.788;10.366;2022-07-24T04:26:29;28.10;56.40
44477;DHT22;30180;44.788;10.366;2022-07-24T04:28:57;28.10;56.40
44477;DHT22;30180;44.788;10.366;2022-07-24T04:31:26;28.10;56.40
44477;DHT22;30180;44.788;10.366;2022-07-24T04:33:57;28.10;56.50
44477;DHT22;30180;44.788;10.366;2022-07-24T04:36:26;28.10;56.50
44477;DHT22;30180;44.788;10.366;2022-07-24T04:38:54;28.10;56.50
44477;DHT22;30180;44.788;10.366;2022-07-24T04:41:22;28.10;56.50
44477;DHT22;30180;44.788;10.366;2022-07-24T04:43:51;28.10;56.50
44477;DHT22;30180;44.788;10.366;2022-07-24T04:46:19;28.10;56.60
44477;DHT22;30180;44.788;10.366;2022-07-24T04:48:47;28.10;56.60
44477;DHT22;30180;44.788;10.366;2022-07-24T04:51:17;28.10;56.60
44477;DHT22;30180;44.788;10.366;2022-07-24T04:53:45;28.10;56.60
44477;DHT22;30180;44.788;10.366;2022-07-24T04:56:14;28.10;56.70
44477;DHT22;30180;44.788;10.366;2022-07-24T04:58:42;28.10;56.70
44477;DHT22;30180;44.788;10.366;2022-07-24T05:01:11;28.10;56.70
44477;DHT22;30180;44.788;10.366;2022-07-24T05:03:39;28.10;56.70
44477;DHT22;30180;44.788;10.366;2022-07-24T05:06:07;28.10;56.70
44477;DHT22;30180;44.788;10.366;2022-07-24T05:08:37;28.10;56.70
44477;DHT22;30180;44.788;10.366;2022-07-24T05:11:05;28.10;56.80
44477;DHT22;30180;44.788;10.366;2022-07-24T05:13:34;28.10;56.80
44477;DHT22;30180;44.788;10.366;2022-07-24T05:16:02;28.10;56.80
44477;DHT22;30180;44.788;10.366;2022-07-24T05:18:30;28.10;56.80
44477;DHT22;30180;44.788;10.366;2022-07-24T05:20:58;28.10;56.90
44477;DHT22;30180;44.788;10.366;2022-07-24T05:23:27;28.10;56.80
44477;DHT22;30180;44.788;10.366;2022-07-24T05:25:56;28.10;56.90
44477;DHT22;30180;44.788;10.366;2022-07-24T05:28:24;28.10;57.00
44477;DHT22;30180;44.788;10.366;2022-07-24T05:30:53;28.10;57.00
44477;DHT22;30180;44.788;10.366;2022-07-24T05:33:21;28.10;57.00
44477;DHT22;30180;44.788;10.366;2022-07-24T05:35:49;28.10;57.00
44477;DHT22;30180;44.788;10.366;2022-07-24T05:38:18;28.10;57.10
44477;DHT22;30180;44.788;10.366;2022-07-24T05:40:46;28.10;57.10
44477;DHT22;30180;44.788;10.366;2022-07-24T05:43:15;28.10;57.10
44477;DHT22;30180;44.788;10.366;2022-07-24T05:45:44;28.10;57.10
44477;DHT22;30180;44.788;10.366;2022-07-24T05:48:12;28.10;57.20
44477;DHT22;30180;44.788;10.366;2022-07-24T05:50:41;28.20;57.20
44477;DHT22;30180;44.788;10.366;2022-07-24T05:53:09;28.10;57.20
44477;DHT22;30180;44.788;10.366;2022-07-24T05:55:38;28.10;57.20
44477;DHT22;30180;44.788;10.366;2022-07-24T05:58:06;28.10;57.90
44477;DHT22;30180;44.788;10.366;2022-07-24T06:00:35;28.20;58.00
44477;DHT22;30180;44.788;10.366;2022-07-24T06:03:04;28.20;57.40
44477;DHT22;30180;44.788;10.366;2022-07-24T06:05:32;28.20;57.40
44477;DHT22;30180;44.788;10.366;2022-07-24T06:08:01;28.10;57.40
44477;DHT22;30180;44.788;10.366;2022-07-24T06:10:29;28.20;57.50
44477;DHT22;30180;44.788;10.366;2022-07-24T06:12:58;28.20;57.50
44477;DHT22;30180;44.788;10.366;2022-07-24T06:15:26;28.10;57.50
44477;DHT22;30180;44.788;10.366;2022-07-24T06:17:57;28.20;57.60
44477;DHT22;30180;44.788;10.366;2022-07-24T06:20:25;28.20;57.60
44477;DHT22;30180;44.788;10.366;2022-07-24T06:22:53;28.20;57.80
44477;DHT22;30180;44.788;10.366;2022-07-24T06:25:22;28.20;57.70
44477;DHT22;30180;44.788;10.366;2022-07-24T06:27:50;28.20;57.70
44477;DHT22;30180;44.788;10.366;2022-07-24T06:30:21;28.20;57.70
44477;DHT22;30180;44.788;10.366;2022-07-24T06:32:52;28.20;57.70
44477;DHT22;30180;44.788;10.366;2022-07-24T06:35:23;28.20;57.80
44477;DHT22;30180;44.788;10.366;2022-07-24T06:37:52;28.20;57.80
44477;DHT22;30180;44.788;10.366;2022-07-24T06:40:20;28.20;57.80
44477;DHT22;30180;44.788;10.366;2022-07-24T06:42:49;28.20;57.90
44477;DHT22;30180;44.788;10.366;2022-07-24T06:45:17;28.20;57.90
44477;DHT22;30180;44.788;10.366;2022-07-24T06:47:46;28.20;57.90
44477;DHT22;30180;44.788;10.366;2022-07-24T06:50:14;28.20;58.00
44477;DHT22;30180;44.788;10.366;2022-07-24T06:52:44;28.20;58.00
44477;DHT22;30180;44.788;10.366;2022-07-24T06:55:13;28.20;58.00
44477;DHT22;30180;44.788;10.366;2022-07-24T06:57:41;28.20;58.10
44477;DHT22;30180;44.788;10.366;2022-07-24T07:00:10;28.20;58.10
44477;DHT22;30180;44.788;10.366;2022-07-24T07:02:39;28.20;58.10
44477;DHT22;30180;44.788;10.366;2022-07-24T07:05:08;28.20;58.10
44477;DHT22;30180;44.788;10.366;2022-07-24T07:07:37;28.20;58.20
44477;DHT22;30180;44.788;10.366;2022-07-24T07:10:08;28.20;58.20
44477;DHT22;30180;44.788;10.366;2022-07-24T07:12:36;28.20;58.30
44477;DHT22;30180;44.788;10.366;2022-07-24T07:15:07;28.20;58.30
44477;DHT22;30180;44.788;10.366;2022-07-24T07:17:37;28.20;58.30
44477;DHT22;30180;44.788;10.366;2022-07-24T07:20:07;28.20;58.40
44477;DHT22;30180;44.788;10.366;2022-07-24T07:22:37;28.20;58.40
44477;DHT22;30180;44.788;10.366;2022-07-24T07:25:07;28.20;58.40
44477;DHT22;30180;44.788;10.366;2022-07-24T07:27:36;28.20;58.60
44477;DHT22;30180;44.788;10.366;2022-07-24T07:30:07;28.20;58.60
44477;DHT22;30180;44.788;10.366;2022-07-24T07:32:37;28.20;58.50
44477;DHT22;30180;44.788;10.366;2022-07-24T07:35:05;28.20;58.50
44477;DHT22;30180;44.788;10.366;2022-07-24T07:37:47;28.20;58.70
44477;DHT22;30180;44.788;10.366;2022-07-24T07:40:17;28.20;58.70
44477;DHT22;30180;44.788;10.366;2022-07-24T07:42:46;28.20;58.80
44477;DHT22;30180;44.788;10.366;2022-07-24T07:45:14;28.30;58.80
44477;DHT22;30180;44.788;10.366;2022-07-24T07:47:42;28.30;58.90
44477;DHT22;30180;44.788;10.366;2022-07-24T07:50:11;28.30;58.90
44477;DHT22;30180;44.788;10.366;2022-07-24T07:52:39;28.30;58.90
44477;DHT22;30180;44.788;10.366;2022-07-24T07:55:08;28.30;58.90
44477;DHT22;30180;44.788;10.366;2022-07-24T07:57:38;28.30;59.00
44477;DHT22;30180;44.788;10.366;2022-07-24T08:00:28;28.30;59.10
44477;DHT22;30180;44.788;10.366;2022-07-24T08:02:56;28.30;59.10
44477;DHT22;30180;44.788;10.366;2022-07-24T08:05:24;28.30;59.10
44477;DHT22;30180;44.788;10.366;2022-07-24T08:07:53;28.30;59.20
44477;DHT22;30180;44.788;10.366;2022-07-24T08:10:21;28.30;59.20
44477;DHT22;30180;44.788;10.366;2022-07-24T08:12:51;28.30;59.80
44477;DHT22;30180;44.788;10.366;2022-07-24T08:15:20;28.30;59.30
44477;DHT22;30180;44.788;10.366;2022-07-24T08:17:51;28.30;59.20
44477;DHT22;30180;44.788;10.366;2022-07-24T08:20:20;28.30;59.30
44477;DHT22;30180;44.788;10.366;2022-07-24T08:22:49;28.30;59.30
44477;DHT22;30180;44.788;10.366;2022-07-24T08:25:18;28.30;59.30
44477;DHT22;30180;44.788;10.366;2022-07-24T08:27:46;28.30;59.30
44477;DHT22;30180;44.788;10.366;2022-07-24T08:30:16;28.30;59.50
44477;DHT22;30180;44.788;10.366;2022-07-24T08:32:45;28.30;59.50
44477;DHT22;30180;44.788;10.366;2022-07-24T08:35:13;28.30;59.50
44477;DHT22;30180;44.788;10.366;2022-07-24T08:37:42;28.30;59.50
44477;DHT22;30180;44.788;10.366;2022-07-24T08:40:12;28.30;59.50
44477;DHT22;30180;44.788;10.366;2022-07-24T08:42:40;28.30;59.50
44477;DHT22;30180;44.788;10.366;2022-07-24T08:45:09;28.30;59.60
44477;DHT22;30180;44.788;10.366;2022-07-24T08:47:40;28.30;59.70
44477;DHT22;30180;44.788;10.366;2022-07-24T08:50:09;28.30;59.70
44477;DHT22;30180;44.788;10.366;2022-07-24T08:52:38;28.30;59.70
44477;DHT22;30180;44.788;10.366;2022-07-24T08:55:11;28.30;59.70
44477;DHT22;30180;44.788;10.366;2022-07-24T08:57:40;28.30;59.80
44477;DHT22;30180;44.788;10.366;2022-07-24T09:00:08;28.30;59.90
44477;DHT22;30180;44.788;10.366;2022-07-24T09:02:40;28.40;60.00
44477;DHT22;30180;44.788;10.366;2022-07-24T09:05:09;28.40;59.90
44477;DHT22;30180;44.788;10.366;2022-07-24T09:07:37;28.40;60.00
44477;DHT22;30180;44.788;10.366;2022-07-24T09:10:07;28.40;60.00
44477;DHT22;30180;44.788;10.366;2022-07-24T09:12:37;28.40;60.00
44477;DHT22;30180;44.788;10.366;2022-07-24T09:15:13;28.40;60.10
44477;DHT22;30180;44.788;10.366;2022-07-24T09:17:51;28.40;60.10
44477;DHT22;30180;44.788;10.366;2022-07-24T09:20:21;28.40;60.10
44477;DHT22;30180;44.788;10.366;2022-07-24T09:22:50;28.40;60.00
44477;DHT22;30180;44.788;10.366;2022-07-24T09:25:20;28.40;60.10
44477;DHT22;30180;44.788;10.366;2022-07-24T09:27:51;28.40;60.10
44477;DHT22;30180;44.788;10.366;2022-07-24T09:30:25;28.40;60.10
44477;DHT22;30180;44.788;10.366;2022-07-24T09:32:57;28.40;60.10
44477;DHT22;30180;44.788;10.366;2022-07-24T09:35:31;28.40;60.20
44477;DHT22;30180;44.788;10.366;2022-07-24T09:38:01;28.40;60.20
44477;DHT22;30180;44.788;10.366;2022-07-24T09:40:31;28.40;60.20
44477;DHT22;30180;44.788;10.366;2022-07-24T09:43:18;28.40;60.30
44477;DHT22;30180;44.788;10.366;2022-07-24T09:45:58;28.30;60.20
44477;DHT22;30180;44.788;10.366;2022-07-24T09:48:30;28.30;60.20
44477;DHT22;30180;44.788;10.366;2022-07-24T09:51:01;28.30;60.30
44477;DHT22;30180;44.788;10.366;2022-07-24T09:53:31;28.30;60.30
44477;DHT22;30180;44.788;10.366;2022-07-24T09:56:08;28.30;60.30
44477;DHT22;30180;44.788;10.366;2022-07-24T09:58:38;28.30;60.30
44477;DHT22;30180;44.788;10.366;2022-07-24T10:01:08;28.30;60.30
44477;DHT22;30180;44.788;10.366;2022-07-24T10:03:41;28.30;60.40
44477;DHT22;30180;44.788;10.366;2022-07-24T10:06:11;28.30;60.40
44477;DHT22;30180;44.788;10.366;2022-07-24T10:08:42;28.30;60.40
44477;DHT22;30180;44.788;10.366;2022-07-24T10:11:12;28.30;60.40
44477;DHT22;30180;44.788;10.366;2022-07-24T10:13:41;28.30;60.50
44477;DHT22;30180;44.788;10.366;2022-07-24T10:16:29;28.30;60.50
44477;DHT22;30180;44.788;10.366;2022-07-24T10:19:01;28.30;60.50
44477;DHT22;30180;44.788;10.366;2022-07-24T10:21:32;28.30;60.50
44477;DHT22;30180;44.788;10.366;2022-07-24T10:27:05;28.30;60.50
44477;DHT22;30180;44.788;10.366;2022-07-24T10:29:37;28.30;60.50
44477;DHT22;30180;44.788;10.366;2022-07-24T10:32:06;28.30;60.60
44477;DHT22;30180;44.788;10.366;2022-07-24T10:34:43;28.30;60.60
44477;DHT22;30180;44.788;10.366;2022-07-24T10:37:23;28.30;60.60
44477;DHT22;30180;44.788;10.366;2022-07-24T10:40:02;28.30;60.60
44477;DHT22;30180;44.788;10.366;2022-07-24T10:42:31;28.30;60.60
44477;DHT22;30180;44.788;10.366;2022-07-24T10:45:15;28.30;60.60
44477;DHT22;30180;44.788;10.366;2022-07-24T10:47:44;28.30;60.60
44477;DHT22;30180;44.788;10.366;2022-07-24T10:50:14;28.30;60.60
44477;DHT22;30180;44.788;10.366;2022-07-24T10:52:43;28.30;60.60
44477;DHT22;30180;44.788;10.366;2022-07-24T10:55:26;28.30;60.70
44477;DHT22;30180;44.788;10.366;2022-07-24T10:58:03;28.30;60.60
44477;DHT22;30180;44.788;10.366;2022-07-24T11:00:43;28.30;60.70
44477;DHT22;30180;44.788;10.366;2022-07-24T11:03:18;28.30;60.70
44477;DHT22;30180;44.788;10.366;2022-07-24T11:08:48;28.30;60.60
44477;DHT22;30180;44.788;10.366;2022-07-24T11:11:18;28.30;60.70
44477;DHT22;30180;44.788;10.366;2022-07-24T11:13:49;28.30;60.70
44477;DHT22;30180;44.788;10.366;2022-07-24T11:16:29;28.30;60.70
44477;DHT22;30180;44.788;10.366;2022-07-24T11:19:29;28.30;60.70
44477;DHT22;30180;44.788;10.366;2022-07-24T11:22:09;28.30;60.70
44477;DHT22;30180;44.788;10.366;2022-07-24T11:25:04;28.30;60.70
44477;DHT22;30180;44.788;10.366;2022-07-24T11:27:45;28.30;60.70
44477;DHT22;30180;44.788;10.366;2022-07-24T11:30:14;28.20;60.60
44477;DHT22;30180;44.788;10.366;2022-07-24T11:32:43;28.20;60.60
44477;DHT22;30180;44.788;10.366;2022-07-24T11:35:12;28.20;60.60
44477;DHT22;30180;44.788;10.366;2022-07-24T11:37:41;28.20;60.70
44477;DHT22;30180;44.788;10.366;2022-07-24T11:40:15;28.20;60.70
44477;DHT22;30180;44.788;10.366;2022-07-24T11:42:44;28.20;60.70
44477;DHT22;30180;44.788;10.366;2022-07-24T11:45:12;28.20;60.60
44477;DHT22;30180;44.788;10.366;2022-07-24T11:47:40;28.20;60.70
44477;DHT22;30180;44.788;10.366;2022-07-24T11:50:08;28.20;60.70
44477;DHT22;30180;44.788;10.366;2022-07-24T11:52:39;28.20;60.60
44477;DHT22;30180;44.788;10.366;2022-07-24T11:55:10;28.20;60.70
44477;DHT22;30180;44.788;10.366;2022-07-24T11:57:46;28.20;60.70
44477;DHT22;30180;44.788;10.366;2022-07-24T12:00:34;28.20;60.70
44477;DHT22;30180;44.788;10.366;2022-07-24T12:03:03;28.20;60.70
44477;DHT22;30180;44.788;10.366;2022-07-24T12:05:36;28.20;60.70
44477;DHT22;30180;44.788;10.366;2022-07-24T12:08:17;28.20;60.70
44477;DHT22;30180;44.788;10.366;2022-07-24T12:10:46;28.20;60.70
44477;DHT22;30180;44.788;10.366;2022-07-24T12:13:17;28.10;60.60
44477;DHT22;30180;44.788;10.366;2022-07-24T12:15:45;28.20;60.60
44477;DHT22;30180;44.788;10.366;2022-07-24T12:18:14;28.20;60.70
44477;DHT22;30180;44.788;10.366;2022-07-24T12:20:48;28.20;60.60
44477;DHT22;30180;44.788;10.366;2022-07-24T12:23:17;28.20;60.70
44477;DHT22;30180;44.788;10.366;2022-07-24T12:25:46;28.20;60.70
44477;DHT22;30180;44.788;10.366;2022-07-24T12:28:18;28.20;60.60
44477;DHT22;30180;44.788;10.366;2022-07-24T12:30:47;28.20;60.70
44477;DHT22;30180;44.788;10.366;2022-07-24T12:33:21;28.20;60.70
44477;DHT22;30180;44.788;10.366;2022-07-24T12:35:54;28.10;60.60
44477;DHT22;30180;44.788;10.366;2022-07-24T12:38:24;28.10;60.60
44477;DHT22;30180;44.788;10.366;2022-07-24T12:41:01;28.10;60.60
44477;DHT22;30180;44.788;10.366;2022-07-24T12:43:32;28.10;60.60
44477;DHT22;30180;44.788;10.366;2022-07-24T12:46:08;28.10;60.60
44477;DHT22;30180;44.788;10.366;2022-07-24T12:48:37;28.10;60.60
44477;DHT22;30180;44.788;10.366;2022-07-24T12:51:08;28.10;60.60
44477;DHT22;30180;44.788;10.366;2022-07-24T12:53:40;28.10;60.50
44477;DHT22;30180;44.788;10.366;2022-07-24T12:56:09;28.10;60.60
44477;DHT22;30180;44.788;10.366;2022-07-24T12:58:50;28.10;60.50
44477;DHT22;30180;44.788;10.366;2022-07-24T13:01:19;28.10;60.50
44477;DHT22;30180;44.788;10.366;2022-07-24T13:03:55;28.10;60.50
44477;DHT22;30180;44.788;10.366;2022-07-24T13:06:36;28.10;60.50
44477;DHT22;30180;44.788;10.366;2022-07-24T13:09:05;28.10;60.60
44477;DHT22;30180;44.788;10.366;2022-07-24T13:11:35;28.10;60.50
44477;DHT22;30180;44.788;10.366;2022-07-24T13:14:06;28.10;60.50
44477;DHT22;30180;44.788;10.366;2022-07-24T13:16:37;28.10;60.50
44477;DHT22;30180;44.788;10.366;2022-07-24T13:19:06;28.10;60.50
44477;DHT22;30180;44.788;10.366;2022-07-24T13:21:35;28.10;60.50
44477;DHT22;30180;44.788;10.366;2022-07-24T13:24:05;28.10;60.40
44477;DHT22;30180;44.788;10.366;2022-07-24T13:26:35;28.10;60.40
44477;DHT22;30180;44.788;10.366;2022-07-24T13:29:06;28.10;60.50
44477;DHT22;30180;44.788;10.366;2022-07-24T13:31:34;28.10;60.50
44477;DHT22;30180;44.788;10.366;2022-07-24T13:34:03;28.10;60.40
44477;DHT22;30180;44.788;10.366;2022-07-24T13:36:33;28.10;60.50
44477;DHT22;30180;44.788;10.366;2022-07-24T13:39:03;28.10;60.40
44477;DHT22;30180;44.788;10.366;2022-07-24T13:41:32;28.10;60.40
44477;DHT22;30180;44.788;10.366;2022-07-24T13:44:01;28.10;60.40
44477;DHT22;30180;44.788;10.366;2022-07-24T13:46:32;28.10;60.40
44477;DHT22;30180;44.788;10.366;2022-07-24T13:49:03;28.10;60.40
44477;DHT22;30180;44.788;10.366;2022-07-24T13:51:33;28.10;60.40
44477;DHT22;30180;44.788;10.366;2022-07-24T13:54:01;28.10;60.40
44477;DHT22;30180;44.788;10.366;2022-07-24T13:56:30;28.10;60.40
44477;DHT22;30180;44.788;10.366;2022-07-24T13:59:00;28.10;60.40
44477;DHT22;30180;44.788;10.366;2022-07-24T14:01:32;28.10;60.30
44477;DHT22;30180;44.788;10.366;2022-07-24T14:04:02;28.10;60.30
44477;DHT22;30180;44.788;10.366;2022-07-24T14:06:51;28.10;60.30
44477;DHT22;30180;44.788;10.366;2022-07-24T14:09:19;28.10;60.30
44477;DHT22;30180;44.788;10.366;2022-07-24T14:11:47;28.10;60.30
44477;DHT22;30180;44.788;10.366;2022-07-24T14:14:16;28.10;60.30
44477;DHT22;30180;44.788;10.366;2022-07-24T14:16:46;28.10;60.30
44477;DHT22;30180;44.788;10.366;2022-07-24T14:19:14;28.00;60.20
44477;DHT22;30180;44.788;10.366;2022-07-24T14:21:43;28.10;60.20
44477;DHT22;30180;44.788;10.366;2022-07-24T14:24:16;28.10;60.90
44477;DHT22;30180;44.788;10.366;2022-07-24T14:26:46;28.10;60.20
44477;DHT22;30180;44.788;10.366;2022-07-24T14:29:14;28.10;60.20
44477;DHT22;30180;44.788;10.366;2022-07-24T14:31:42;28.10;60.20
44477;DHT22;30180;44.788;10.366;2022-07-24T14:34:13;28.10;60.10
44477;DHT22;30180;44.788;10.366;2022-07-24T14:36:41;28.10;60.20
44477;DHT22;30180;44.788;10.366;2022-07-24T14:39:10;28.10;60.10
44477;DHT22;30180;44.788;10.366;2022-07-24T14:41:38;28.10;60.10
44477;DHT22;30180;44.788;10.366;2022-07-24T14:44:07;28.10;60.10
44477;DHT22;30180;44.788;10.366;2022-07-24T14:46:37;28.10;60.10
44477;DHT22;30180;44.788;10.366;2022-07-24T14:49:06;28.10;60.10
44477;DHT22;30180;44.788;10.366;2022-07-24T14:51:37;28.00;60.10
44477;DHT22;30180;44.788;10.366;2022-07-24T14:54:05;28.00;60.00
44477;DHT22;30180;44.788;10.366;2022-07-24T14:56:35;28.00;60.00
44477;DHT22;30180;44.788;10.366;2022-07-24T14:59:04;28.10;60.10
44477;DHT22;30180;44.788;10.366;2022-07-24T15:01:32;28.10;60.10
44477;DHT22;30180;44.788;10.366;2022-07-24T15:04:05;28.10;60.10
44477;DHT22;30180;44.788;10.366;2022-07-24T15:06:36;28.10;60.10
44477;DHT22;30180;44.788;10.366;2022-07-24T15:09:05;28.10;60.10
44477;DHT22;30180;44.788;10.366;2022-07-24T15:11:33;28.10;60.00
44477;DHT22;30180;44.788;10.366;2022-07-24T15:14:03;28.10;60.00
44477;DHT22;30180;44.788;10.366;2022-07-24T15:16:32;28.10;60.00
44477;DHT22;30180;44.788;10.366;2022-07-24T15:19:02;28.10;60.00
44477;DHT22;30180;44.788;10.366;2022-07-24T15:21:34;28.10;59.90
44477;DHT22;30180;44.788;10.366;2022-07-24T15:24:06;28.10;60.00
44477;DHT22;30180;44.788;10.366;2022-07-24T15:26:35;28.10;59.90
44477;DHT22;30180;44.788;10.366;2022-07-24T15:29:03;28.10;59.90
44477;DHT22;30180;44.788;10.366;2022-07-24T15:31:32;28.10;59.90
44477;DHT22;30180;44.788;10.366;2022-07-24T15:34:04;28.10;59.80
44477;DHT22;30180;44.788;10.366;2022-07-24T15:36:35;28.10;59.90
44477;DHT22;30180;44.788;10.366;2022-07-24T15:39:06;28.10;59.90